Santo Antonio da Patrulha, Brazil
Current Conditions -  °F | °C
As of 10:00 AM on Monday 22 Dec 2014 (Local Time) from SBCO Reporting Station
Broken Clouds Broken Clouds  
Wind Chill: 70°   Ceiling: 4000
Heat Index: 70°   Visibility: 6mi
Dew Point: 63°   Wind: 9mph
Humidity: 78%   Direction: 270°W
Pressure: 29.94"   Gusts: NA
Location:  29.82°S, 50.52°W
Report Text: SBCO 221200Z 27008KT 9999 SCT023 BKN040 21/17 Q1014
Loading
Personal Weather Stations






























Interactive Weather Map New forecast layout! Learn more

10-Day Weather Forecast

Advertisements
Track Severe Weather on mobile